createdAt,value
2022-12-03T00:00:57.693Z,0.73
2022-12-03T00:01:59.182Z,0.59
2022-12-03T00:03:01.179Z,0.59
2022-12-03T00:04:03.077Z,0.52
2022-12-03T00:05:05.328Z,0.38
2022-12-03T00:06:07.200Z,0.51
2022-12-03T00:07:08.700Z,0.30
2022-12-03T00:08:10.294Z,0.39
2022-12-03T00:09:13.203Z,0.46
2022-12-03T00:10:14.718Z,0.35
2022-12-03T00:11:16.230Z,0.33
2022-12-03T00:12:17.739Z,0.38
2022-12-03T00:13:19.288Z,0.43
2022-12-03T00:14:20.910Z,0.50
2022-12-03T00:15:22.484Z,0.57
2022-12-03T00:16:24.018Z,0.74
2022-12-03T00:17:25.592Z,0.55
2022-12-03T00:18:27.074Z,0.29
2022-12-03T00:19:28.630Z,0.21
2022-12-03T00:20:30.145Z,0.44
2022-12-03T00:21:31.619Z,0.33
2022-12-03T00:22:33.201Z,0.41
2022-12-03T00:23:38.610Z,0.52
2022-12-03T00:24:44.715Z,0.38
2022-12-03T00:25:46.237Z,0.41
2022-12-03T00:26:47.776Z,0.34
2022-12-03T00:27:49.340Z,0.20
2022-12-03T00:28:50.904Z,0.43
2022-12-03T00:29:52.439Z,0.30
2022-12-03T00:30:54.050Z,0.19
2022-12-03T00:31:55.668Z,0.28
2022-12-03T00:32:57.187Z,0.20
2022-12-03T00:33:58.704Z,0.37
2022-12-03T00:35:00.265Z,0.13
2022-12-03T00:36:01.860Z,0.38
2022-12-03T00:37:03.441Z,0.00
2022-12-03T00:38:04.958Z,0.11
2022-12-03T00:39:06.454Z,0.31
2022-12-03T00:40:11.367Z,0.31
2022-12-03T00:41:13.008Z,0.29
2022-12-03T00:42:14.594Z,0.39
2022-12-03T00:43:16.153Z,0.62
2022-12-03T00:44:17.673Z,0.69
2022-12-03T00:45:19.205Z,0.57
2022-12-03T00:46:21.800Z,0.56
2022-12-03T00:47:23.541Z,0.37
2022-12-03T00:48:25.069Z,0.57
2022-12-03T00:49:26.567Z,0.50
2022-12-03T00:50:28.106Z,0.65
2022-12-03T00:51:29.655Z,0.57
2022-12-03T00:52:31.202Z,0.44
2022-12-03T00:53:32.677Z,0.64
2022-12-03T00:55:12.529Z,0.81
2022-12-03T00:56:15.427Z,0.71
2022-12-03T00:57:16.952Z,0.64
2022-12-03T00:58:18.525Z,0.77
2022-12-03T00:59:20.713Z,0.75
2022-12-03T01:00:22.563Z,0.59
2022-12-03T01:01:24.214Z,0.62
2022-12-03T01:02:25.808Z,0.73
2022-12-03T01:03:27.530Z,0.85
2022-12-03T01:04:29.555Z,0.85
2022-12-03T01:05:31.092Z,0.78
2022-12-03T01:06:32.594Z,0.72
2022-12-03T01:07:34.190Z,0.56
2022-12-03T01:08:35.748Z,0.72
2022-12-03T01:09:37.276Z,0.76
2022-12-03T01:10:38.795Z,0.58
2022-12-03T01:11:41.648Z,0.59
2022-12-03T01:12:43.199Z,0.67
2022-12-03T01:13:44.728Z,0.44
2022-12-03T01:14:46.681Z,0.80
2022-12-03T01:15:48.271Z,0.81
2022-12-03T01:16:49.824Z,0.65
2022-12-03T01:17:51.337Z,0.49
2022-12-03T01:18:52.898Z,0.54
2022-12-03T01:19:54.464Z,0.83
2022-12-03T01:20:55.975Z,0.86
2022-12-03T01:21:57.505Z,0.96
2022-12-03T01:22:59.138Z,0.73
2022-12-03T01:24:00.864Z,0.71
2022-12-03T01:25:03.231Z,0.81
2022-12-03T01:26:05.018Z,0.79
2022-12-03T01:27:07.875Z,0.73
2022-12-03T01:28:09.453Z,0.73
2022-12-03T01:29:11.036Z,0.93
2022-12-03T01:30:13.533Z,0.88
2022-12-03T01:31:15.167Z,0.76
2022-12-03T01:32:16.777Z,1.01
2022-12-03T01:33:18.283Z,1.10
2022-12-03T01:34:19.902Z,0.87
2022-12-03T01:35:21.456Z,0.99
2022-12-03T01:36:23.073Z,0.98
2022-12-03T01:37:26.403Z,1.04
2022-12-03T01:38:27.886Z,0.91
2022-12-03T01:39:29.592Z,0.95
2022-12-03T01:40:31.164Z,0.95
2022-12-03T01:41:33.922Z,0.93
2022-12-03T01:42:40.812Z,1.07
2022-12-03T01:43:42.923Z,1.05
2022-12-03T01:44:45.434Z,1.02
2022-12-03T01:45:47.039Z,0.94
2022-12-03T01:46:49.744Z,1.11
2022-12-03T01:47:51.499Z,0.98
2022-12-03T01:48:55.816Z,0.99
2022-12-03T01:50:01.681Z,0.97
2022-12-03T01:51:03.633Z,1.10
2022-12-03T01:52:05.809Z,1.00
2022-12-03T01:53:12.335Z,0.53
2022-12-03T01:54:17.375Z,0.75
2022-12-03T01:55:22.234Z,0.83
2022-12-03T01:56:24.325Z,0.92
2022-12-03T01:57:27.982Z,0.81
2022-12-03T01:58:31.206Z,0.77
2022-12-03T01:59:35.567Z,0.66
2022-12-03T02:00:37.110Z,0.83
2022-12-03T02:01:38.639Z,0.85
2022-12-03T02:02:40.428Z,0.97
2022-12-03T02:03:42.378Z,0.81
2022-12-03T02:04:44.250Z,0.69
2022-12-03T02:05:45.784Z,0.80
2022-12-03T02:06:47.322Z,0.79
2022-12-03T02:07:49.420Z,0.61
2022-12-03T02:08:51.029Z,0.57
2022-12-03T02:09:53.697Z,0.80
2022-12-03T02:10:56.424Z,0.70
2022-12-03T02:11:57.930Z,0.90
2022-12-03T02:13:02.760Z,0.85
2022-12-03T02:14:08.855Z,0.89
2022-12-03T02:15:11.328Z,0.84
2022-12-03T02:16:12.899Z,0.68
2022-12-03T02:17:14.609Z,0.60
2022-12-03T02:18:16.322Z,0.75
2022-12-03T02:19:24.349Z,0.69
2022-12-03T02:20:25.947Z,0.97
2022-12-03T02:21:34.848Z,0.78
2022-12-03T02:22:55.028Z,0.86
2022-12-03T02:24:01.731Z,0.93
2022-12-03T02:25:19.629Z,0.99
2022-12-03T02:26:21.298Z,1.02
2022-12-03T02:27:23.331Z,0.73
2022-12-03T02:28:25.012Z,0.87
2022-12-03T02:29:26.533Z,1.00
2022-12-03T02:30:29.821Z,0.72
2022-12-03T02:31:31.734Z,0.59
2022-12-03T02:32:33.586Z,0.64
2022-12-03T02:33:35.251Z,0.56
2022-12-03T02:34:39.077Z,0.58
2022-12-03T02:35:40.782Z,0.59
2022-12-03T02:36:42.364Z,0.62
2022-12-03T02:37:45.839Z,0.76
2022-12-03T02:38:49.283Z,0.86
2022-12-03T02:39:54.619Z,0.87
2022-12-03T02:41:02.080Z,0.93
2022-12-03T02:42:05.179Z,0.74
2022-12-03T02:43:06.758Z,0.68
2022-12-03T02:44:09.362Z,0.73
2022-12-03T02:45:15.010Z,0.79
2022-12-03T02:46:16.569Z,0.82
2022-12-03T02:47:35.293Z,0.63
2022-12-03T02:48:39.844Z,0.52
2022-12-03T02:49:41.767Z,0.63
2022-12-03T02:50:48.106Z,0.68
2022-12-03T02:51:49.665Z,0.72
2022-12-03T02:52:54.653Z,0.76
2022-12-03T02:53:57.084Z,0.76
2022-12-03T02:54:59.280Z,0.46
2022-12-03T02:56:03.676Z,0.32
2022-12-03T02:57:05.660Z,0.40
2022-12-03T02:58:07.240Z,0.50
2022-12-03T02:59:08.875Z,0.52
2022-12-03T03:00:45.358Z,0.69
2022-12-03T03:01:47.093Z,0.69
2022-12-03T03:02:49.126Z,0.65
2022-12-03T03:03:51.872Z,0.59
2022-12-03T03:04:53.760Z,0.68
2022-12-03T03:05:56.814Z,0.62
2022-12-03T03:06:58.787Z,0.59
2022-12-03T03:08:01.215Z,0.79
2022-12-03T03:09:03.412Z,0.92
2022-12-03T03:10:07.143Z,0.91
2022-12-03T03:11:10.955Z,0.80
2022-12-03T03:12:12.492Z,0.82
2022-12-03T03:13:17.743Z,0.96
2022-12-03T03:14:19.374Z,0.82
2022-12-03T03:15:21.964Z,0.70
2022-12-03T03:16:23.590Z,0.79
2022-12-03T03:17:25.206Z,0.73
2022-12-03T03:18:26.763Z,0.76
2022-12-03T03:19:29.138Z,0.76
2022-12-03T03:20:30.690Z,0.79
2022-12-03T03:21:32.233Z,0.96
2022-12-03T03:22:34.874Z,0.93
2022-12-03T03:23:36.389Z,1.05
2022-12-03T03:24:38.175Z,0.78
2022-12-03T03:25:42.514Z,0.99
2022-12-03T03:26:45.682Z,0.96
2022-12-03T03:27:47.433Z,0.60
2022-12-03T03:28:51.084Z,0.59
2022-12-03T03:29:52.768Z,0.90
2022-12-03T03:30:54.684Z,0.87
2022-12-03T03:31:57.139Z,0.92
2022-12-03T03:32:58.757Z,0.89
2022-12-03T03:34:00.496Z,0.86
2022-12-03T03:35:02.739Z,1.00
2022-12-03T03:36:05.237Z,1.18
2022-12-03T03:37:06.824Z,0.88
2022-12-03T03:38:09.602Z,0.96
2022-12-03T03:39:11.664Z,1.17
2022-12-03T03:40:13.349Z,1.13
2022-12-03T03:41:16.228Z,0.90
2022-12-03T03:42:19.264Z,1.06
2022-12-03T03:43:22.293Z,1.12
2022-12-03T03:44:23.883Z,1.22
2022-12-03T03:45:28.981Z,1.26
2022-12-03T03:46:31.670Z,1.10
2022-12-03T03:47:33.428Z,1.17
2022-12-03T03:48:35.531Z,0.97
2022-12-03T03:49:37.215Z,1.06
2022-12-03T03:50:38.970Z,1.16
2022-12-03T03:51:40.901Z,1.05
2022-12-03T03:52:43.146Z,1.16
2022-12-03T03:53:47.391Z,1.37
2022-12-03T03:54:49.212Z,1.32
2022-12-03T03:55:51.131Z,1.08
2022-12-03T03:56:52.830Z,0.88
2022-12-03T03:57:55.814Z,1.20
2022-12-03T03:58:57.622Z,1.23
2022-12-03T03:59:59.793Z,1.11
2022-12-03T04:01:01.664Z,0.90
2022-12-03T04:02:05.948Z,1.14
2022-12-03T04:03:07.480Z,0.98
2022-12-03T04:04:26.274Z,0.84
2022-12-03T04:05:28.118Z,0.73
2022-12-03T04:06:29.645Z,1.03
2022-12-03T04:07:31.242Z,0.65
2022-12-03T04:08:32.826Z,0.81
2022-12-03T04:09:34.401Z,0.86
2022-12-03T04:10:35.936Z,0.87
2022-12-03T04:11:37.483Z,1.05
2022-12-03T04:12:38.999Z,1.07
2022-12-03T04:13:41.859Z,1.06
2022-12-03T04:14:43.384Z,1.23
2022-12-03T04:15:44.915Z,1.02
2022-12-03T04:16:46.492Z,1.12
2022-12-03T04:17:48.190Z,1.16
2022-12-03T04:18:49.725Z,1.25
2022-12-03T04:19:51.285Z,1.31
2022-12-03T04:20:52.807Z,1.28
2022-12-03T04:21:54.316Z,1.31
2022-12-03T04:22:55.837Z,0.91
2022-12-03T04:23:57.404Z,1.00
2022-12-03T04:24:58.986Z,0.88
2022-12-03T04:26:00.514Z,0.92
2022-12-03T04:27:01.998Z,1.04
2022-12-03T04:28:03.566Z,1.26
2022-12-03T04:29:06.531Z,1.03
2022-12-03T04:30:09.212Z,0.99
2022-12-03T04:31:10.835Z,0.92
2022-12-03T04:32:12.363Z,1.10
2022-12-03T04:33:32.512Z,1.02
2022-12-03T04:34:34.080Z,1.27
2022-12-03T04:35:35.676Z,1.22
2022-12-03T04:36:37.644Z,1.08
2022-12-03T04:37:39.186Z,0.94
2022-12-03T04:38:40.694Z,1.06
2022-12-03T04:39:42.243Z,0.97
2022-12-03T04:40:43.751Z,1.24
2022-12-03T04:41:45.356Z,1.24
2022-12-03T04:42:46.859Z,1.22
2022-12-03T04:43:48.462Z,1.27
2022-12-03T04:44:51.811Z,0.96
2022-12-03T04:45:53.749Z,1.04
2022-12-03T04:46:55.274Z,0.96
2022-12-03T04:47:56.778Z,0.80
2022-12-03T04:48:58.319Z,0.84
2022-12-03T04:49:59.861Z,0.82
2022-12-03T04:51:01.374Z,0.90
2022-12-03T04:52:03.041Z,0.87
2022-12-03T04:53:04.530Z,0.55
2022-12-03T04:54:06.092Z,0.98
2022-12-03T04:55:08.483Z,0.99
2022-12-03T04:56:10.024Z,0.85
2022-12-03T04:57:26.931Z,1.07
2022-12-03T04:58:28.482Z,1.01
2022-12-03T04:59:30.150Z,1.08
2022-12-03T05:00:33.024Z,1.08
2022-12-03T05:01:34.662Z,1.08
2022-12-03T05:02:42.192Z,0.99
2022-12-03T05:03:55.750Z,1.07
2022-12-03T05:04:57.251Z,0.96
2022-12-03T05:05:58.747Z,1.05
2022-12-03T05:07:00.347Z,0.84
2022-12-03T05:08:01.907Z,0.88
2022-12-03T05:09:03.887Z,0.93
2022-12-03T05:10:07.046Z,0.64
2022-12-03T05:11:08.590Z,0.91
2022-12-03T05:12:10.099Z,0.55
2022-12-03T05:13:11.589Z,0.61
2022-12-03T05:14:13.347Z,0.72
2022-12-03T05:15:15.048Z,0.85
2022-12-03T05:16:18.020Z,0.65
2022-12-03T05:17:19.611Z,0.70
2022-12-03T05:18:21.166Z,0.75
2022-12-03T05:19:22.712Z,0.78
2022-12-03T05:20:24.203Z,0.63
2022-12-03T05:21:25.754Z,0.73
2022-12-03T05:22:27.329Z,0.89
2022-12-03T05:23:28.893Z,0.87
2022-12-03T05:24:30.379Z,0.84
2022-12-03T05:25:31.908Z,0.75
2022-12-03T05:26:33.465Z,0.65
2022-12-03T05:27:35.041Z,0.54
2022-12-03T05:28:36.556Z,0.49
2022-12-03T05:29:38.094Z,0.65
2022-12-03T05:30:39.693Z,0.49
2022-12-03T05:31:42.556Z,0.77
2022-12-03T05:32:44.090Z,0.70
2022-12-03T05:33:45.662Z,0.93
2022-12-03T05:34:47.255Z,0.87
2022-12-03T05:35:48.795Z,0.60
2022-12-03T05:37:02.623Z,0.55
2022-12-03T05:38:04.147Z,0.66
2022-12-03T05:39:05.666Z,0.59
2022-12-03T05:40:08.411Z,0.24
2022-12-03T05:41:09.949Z,0.44
2022-12-03T05:42:11.943Z,0.41
2022-12-03T05:43:13.445Z,0.51
2022-12-03T05:44:20.133Z,0.37
2022-12-03T05:45:22.662Z,0.63
2022-12-03T05:46:24.303Z,0.66
2022-12-03T05:47:27.206Z,0.69
2022-12-03T05:48:28.733Z,0.47
2022-12-03T05:49:30.283Z,0.17
2022-12-03T05:50:38.885Z,0.12
2022-12-03T05:51:40.439Z,0.44
2022-12-03T05:52:42.090Z,0.43
2022-12-03T05:53:43.622Z,0.62
2022-12-03T05:54:57.505Z,0.44
2022-12-03T05:55:59.020Z,0.44
2022-12-03T05:57:00.587Z,0.31
2022-12-03T05:58:02.381Z,0.54
2022-12-03T05:59:03.927Z,0.36
2022-12-03T06:00:08.604Z,0.32
2022-12-03T06:01:10.138Z,0.63
2022-12-03T06:02:11.901Z,0.66
2022-12-03T06:03:15.056Z,0.41
2022-12-03T06:04:16.655Z,0.35
2022-12-03T06:05:18.942Z,0.27
2022-12-03T06:06:23.249Z,0.15
2022-12-03T06:07:24.849Z,0.07
2022-12-03T06:08:26.428Z,0.33
2022-12-03T06:09:27.974Z,0.39
2022-12-03T06:10:29.773Z,0.29
2022-12-03T06:11:31.449Z,0.30
2022-12-03T06:12:33.046Z,0.08
2022-12-03T06:13:34.526Z,0.11
2022-12-03T06:14:36.041Z,0.22
2022-12-03T06:15:43.332Z,0.07
2022-12-03T06:16:45.457Z,-0.25
2022-12-03T06:17:47.270Z,-0.02
2022-12-03T06:18:50.115Z,-0.14
2022-12-03T06:19:51.883Z,-0.19
2022-12-03T06:20:53.426Z,0.00
2022-12-03T06:21:54.979Z,-0.21
2022-12-03T06:22:56.492Z,-0.08
2022-12-03T06:23:57.988Z,0.01
2022-12-03T06:25:03.585Z,0.16
2022-12-03T06:26:07.808Z,0.22
2022-12-03T06:27:09.321Z,-0.09
2022-12-03T06:28:10.871Z,-0.10
2022-12-03T06:29:12.376Z,0.03
2022-12-03T06:30:14.272Z,0.13
2022-12-03T06:31:16.042Z,0.27
2022-12-03T06:32:17.600Z,0.54
2022-12-03T06:33:19.146Z,0.36
2022-12-03T06:34:22.062Z,0.36
2022-12-03T06:35:23.554Z,0.27
2022-12-03T06:36:25.092Z,0.05
2022-12-03T06:37:26.570Z,0.12
2022-12-03T06:38:28.079Z,0.31
2022-12-03T06:39:29.690Z,0.37
2022-12-03T06:40:31.250Z,0.22
2022-12-03T06:41:32.767Z,0.27
2022-12-03T06:42:34.290Z,0.25
2022-12-03T06:43:35.823Z,0.13
2022-12-03T06:44:37.386Z,0.23
2022-12-03T06:45:42.124Z,0.34
2022-12-03T06:46:47.818Z,0.35
2022-12-03T06:47:49.375Z,0.32
2022-12-03T06:48:50.864Z,0.20
2022-12-03T06:49:53.708Z,0.30
2022-12-03T06:54:48.602Z,0.39
2022-12-03T06:55:50.121Z,0.22
2022-12-03T06:56:51.639Z,0.38
2022-12-03T06:57:53.158Z,0.21
2022-12-03T06:58:54.733Z,0.22
2022-12-03T06:59:56.578Z,0.22
2022-12-03T07:00:58.175Z,0.12
2022-12-03T07:01:59.890Z,0.04
2022-12-03T07:03:01.586Z,0.05
2022-12-03T07:04:03.158Z,0.14
2022-12-03T07:05:07.335Z,-0.10
2022-12-03T07:06:08.839Z,0.03
2022-12-03T07:07:10.377Z,-0.01
2022-12-03T07:08:11.993Z,-0.14
2022-12-03T07:09:13.538Z,-0.09
2022-12-03T07:10:23.921Z,0.10
2022-12-03T07:11:25.460Z,0.05
2022-12-03T07:12:27.029Z,0.13
2022-12-03T07:13:28.586Z,0.05
2022-12-03T07:14:30.093Z,0.15
2022-12-03T07:15:31.627Z,0.15
2022-12-03T07:16:33.728Z,0.07
2022-12-03T07:17:35.368Z,-0.04
2022-12-03T07:18:36.887Z,0.35
2022-12-03T07:19:38.659Z,0.39
2022-12-03T07:20:41.542Z,0.37
2022-12-03T07:21:43.066Z,0.10
2022-12-03T07:22:44.575Z,-0.36
2022-12-03T07:23:46.087Z,-0.35
2022-12-03T07:24:47.656Z,-0.16
2022-12-03T07:25:54.962Z,-0.09
2022-12-03T07:26:56.464Z,-0.20
2022-12-03T07:27:58.000Z,-0.12
2022-12-03T07:28:59.559Z,-0.27
2022-12-03T07:30:01.089Z,-0.10
2022-12-03T07:31:02.757Z,-0.31
2022-12-03T07:32:04.790Z,-0.47
2022-12-03T07:33:06.345Z,-0.28
2022-12-03T07:34:07.873Z,-0.07
2022-12-03T07:35:10.046Z,-0.12
2022-12-03T07:36:12.891Z,-0.01
2022-12-03T07:37:17.512Z,-0.06
2022-12-03T07:38:21.541Z,-0.07
2022-12-03T07:39:23.065Z,-0.01
2022-12-03T07:40:24.571Z,-0.19
2022-12-03T07:41:26.090Z,-0.12
2022-12-03T07:42:27.706Z,-0.32
2022-12-03T07:43:29.254Z,-0.31
2022-12-03T07:44:30.808Z,-0.15
2022-12-03T07:45:32.337Z,-0.29
2022-12-03T07:46:33.948Z,-0.26
2022-12-03T07:47:35.495Z,-0.03
2022-12-03T07:48:37.004Z,0.21
2022-12-03T07:49:38.505Z,0.23
2022-12-03T07:50:40.029Z,-0.12
2022-12-03T07:51:45.786Z,0.21
2022-12-03T07:52:47.336Z,0.19
2022-12-03T07:53:48.902Z,0.23
2022-12-03T07:54:50.508Z,0.26
2022-12-03T07:55:52.076Z,0.36
2022-12-03T07:56:58.109Z,0.12
2022-12-03T07:58:02.933Z,-0.19
2022-12-03T07:59:04.467Z,-0.16
2022-12-03T08:00:07.541Z,-0.26
2022-12-03T08:01:09.139Z,-0.27
2022-12-03T08:02:10.772Z,-0.25
2022-12-03T08:03:12.320Z,-0.30
2022-12-03T08:04:13.844Z,-0.16
2022-12-03T08:05:15.566Z,0.00
2022-12-03T08:06:26.233Z,0.06
2022-12-03T08:07:34.933Z,0.03
2022-12-03T08:08:36.501Z,0.04
2022-12-03T08:09:40.644Z,0.03
2022-12-03T08:10:42.215Z,-0.02
2022-12-03T08:11:45.287Z,0.07
2022-12-03T08:12:47.041Z,0.16
2022-12-03T08:13:48.688Z,0.02
2022-12-03T08:14:50.366Z,0.07
2022-12-03T08:15:52.049Z,0.14
2022-12-03T08:16:53.602Z,0.12
2022-12-03T08:18:11.496Z,-0.06
2022-12-03T08:19:14.629Z,-0.30
2022-12-03T08:22:46.773Z,-0.42
2022-12-03T08:23:48.468Z,-0.29
2022-12-03T08:24:50.016Z,-0.53
2022-12-03T08:25:52.880Z,-0.24
2022-12-03T08:26:57.069Z,-0.18
2022-12-03T08:28:07.293Z,-0.11
2022-12-03T08:29:10.346Z,-0.16
2022-12-03T08:30:14.309Z,-0.11
2022-12-03T08:31:18.964Z,0.06
2022-12-03T08:32:20.642Z,-0.03
2022-12-03T08:33:27.086Z,0.10
2022-12-03T08:34:36.649Z,0.20
2022-12-03T08:35:38.147Z,0.16
2022-12-03T08:36:39.697Z,0.17
2022-12-03T08:37:58.381Z,-0.11
2022-12-03T08:39:05.278Z,-0.30
2022-12-03T08:40:21.051Z,-0.35
2022-12-03T08:41:23.977Z,-0.07
2022-12-03T08:42:26.750Z,-0.12
2022-12-03T08:43:37.221Z,-0.09
2022-12-03T08:44:39.149Z,-0.08
2022-12-03T08:45:42.068Z,-0.07
2022-12-03T08:46:44.232Z,-0.57
2022-12-03T08:47:46.072Z,-0.28
2022-12-03T08:48:56.429Z,-0.14
2022-12-03T08:50:26.198Z,-0.32
2022-12-03T08:51:27.737Z,0.04
2022-12-03T08:52:31.593Z,0.06
2022-12-03T08:53:41.015Z,0.16
2022-12-03T08:54:43.022Z,-0.02
2022-12-03T08:55:46.637Z,0.11
2022-12-03T08:56:48.146Z,0.11
2022-12-03T08:57:49.669Z,0.17
2022-12-03T09:00:59.287Z,-0.16
2022-12-03T09:02:00.855Z,0.14
2022-12-03T09:03:02.799Z,0.09
2022-12-03T09:04:22.176Z,-0.27
2022-12-03T09:05:28.095Z,-0.03
2022-12-03T09:06:29.683Z,-0.03
2022-12-03T09:07:49.736Z,-0.18
2022-12-03T09:08:52.685Z,-0.08
2022-12-03T09:09:54.207Z,-0.04
2022-12-03T09:10:55.806Z,0.03
2022-12-03T09:11:57.396Z,-0.16
2022-12-03T09:12:58.939Z,0.09
2022-12-03T09:14:00.528Z,-0.22
2022-12-03T09:15:02.043Z,-0.18
2022-12-03T09:16:03.836Z,-0.02
2022-12-03T09:17:05.466Z,-0.08
2022-12-03T09:18:07.957Z,-0.11
2022-12-03T09:19:09.622Z,-0.16
2022-12-03T09:20:16.496Z,-0.20
2022-12-03T09:21:17.976Z,0.11
2022-12-03T09:22:19.554Z,0.22
2022-12-03T09:23:21.065Z,0.26
2022-12-03T09:24:23.942Z,-0.01
2022-12-03T09:25:25.523Z,0.30
2022-12-03T09:26:27.063Z,0.38
2022-12-03T09:27:28.551Z,0.28
2022-12-03T09:28:30.048Z,0.31
2022-12-03T09:29:31.560Z,0.39
2022-12-03T09:30:33.203Z,0.54
2022-12-03T09:31:34.742Z,0.09
2022-12-03T09:32:36.340Z,0.52
2022-12-03T09:33:37.835Z,0.20
2022-12-03T09:34:39.368Z,0.30
2022-12-03T09:35:40.910Z,0.26
2022-12-03T09:36:42.417Z,0.10
2022-12-03T09:37:43.997Z,0.34
2022-12-03T09:38:47.913Z,0.04
2022-12-03T09:39:51.217Z,-0.17
2022-12-03T09:41:08.761Z,-0.16
2022-12-03T09:42:10.823Z,0.06
2022-12-03T09:43:13.324Z,-0.09
2022-12-03T09:44:17.985Z,0.03
2022-12-03T09:45:19.976Z,0.01
2022-12-03T09:46:22.786Z,-0.31
2022-12-03T09:47:24.633Z,-0.11
2022-12-03T09:48:26.403Z,-0.30
2022-12-03T09:49:30.271Z,-0.01
2022-12-03T09:50:32.043Z,0.11
2022-12-03T09:51:36.048Z,0.15
2022-12-03T09:52:37.588Z,0.01
2022-12-03T09:53:41.309Z,-0.17
2022-12-03T09:54:47.255Z,-0.10
2022-12-03T09:55:50.621Z,0.04
2022-12-03T09:56:53.279Z,-0.07
2022-12-03T09:57:56.269Z,0.20
2022-12-03T09:58:57.915Z,0.07
2022-12-03T09:59:59.539Z,0.06
2022-12-03T10:01:01.131Z,0.12
2022-12-03T10:02:03.642Z,0.04
2022-12-03T10:03:06.890Z,-0.03
2022-12-03T10:04:08.733Z,-0.09
2022-12-03T10:05:10.462Z,-0.10
2022-12-03T10:06:17.137Z,0.08
2022-12-03T10:07:37.555Z,0.26
2022-12-03T10:08:39.127Z,0.23
2022-12-03T10:09:41.127Z,0.01
2022-12-03T10:10:42.817Z,-0.08
2022-12-03T10:11:45.671Z,0.14
2022-12-03T10:12:47.474Z,0.09
2022-12-03T10:14:01.504Z,-0.06
2022-12-03T10:15:03.733Z,-0.04
2022-12-03T10:16:08.957Z,0.04
2022-12-03T10:17:11.824Z,0.05
2022-12-03T10:18:17.902Z,-0.01
2022-12-03T10:19:24.017Z,-0.14
2022-12-03T10:20:26.330Z,0.03
2022-12-03T10:21:30.642Z,-0.03
2022-12-03T10:22:32.122Z,-0.03
2022-12-03T10:23:33.665Z,-0.22
2022-12-03T10:24:36.576Z,-0.05
2022-12-03T10:25:50.611Z,0.09
2022-12-03T10:26:56.830Z,0.05
2022-12-03T10:27:59.848Z,-0.17
2022-12-03T10:29:01.419Z,-0.17
2022-12-03T10:30:13.906Z,-0.03
2022-12-03T10:31:15.545Z,0.16
2022-12-03T10:32:17.164Z,0.15
2022-12-03T10:33:19.308Z,-0.05
2022-12-03T10:34:25.136Z,-0.17
2022-12-03T10:35:40.293Z,-0.13
2022-12-03T10:36:41.837Z,0.01
2022-12-03T10:37:57.620Z,0.16
2022-12-03T10:39:08.021Z,0.29
2022-12-03T10:40:11.372Z,0.07
2022-12-03T10:41:24.556Z,-0.26
2022-12-03T10:42:29.468Z,-0.14
2022-12-03T10:43:30.999Z,-0.10
2022-12-03T10:44:32.567Z,-0.12
2022-12-03T10:45:34.088Z,-0.01
2022-12-03T10:46:35.669Z,-0.43
2022-12-03T10:47:37.376Z,-0.25
2022-12-03T10:48:39.049Z,-0.24
2022-12-03T10:49:41.730Z,-0.04
2022-12-03T10:50:48.643Z,0.03
2022-12-03T10:51:50.174Z,0.10
2022-12-03T10:52:51.743Z,-0.26
2022-12-03T10:53:53.325Z,-0.01
2022-12-03T10:54:55.297Z,-0.04
2022-12-03T10:56:00.094Z,0.01
2022-12-03T10:57:02.040Z,0.07
2022-12-03T10:58:04.993Z,0.04
2022-12-03T10:59:08.970Z,-0.01
2022-12-03T11:00:15.997Z,-0.16
2022-12-03T11:01:19.196Z,-0.05
2022-12-03T11:02:23.184Z,-0.16
2022-12-03T11:03:26.465Z,0.01
2022-12-03T11:04:31.461Z,-0.35
2022-12-03T11:05:33.738Z,-0.13
2022-12-03T11:06:35.395Z,-0.07
2022-12-03T11:07:39.125Z,-0.05
2022-12-03T11:08:43.391Z,-0.21
2022-12-03T11:09:47.195Z,-0.07
2022-12-03T11:10:57.218Z,0.31
2022-12-03T11:12:04.418Z,-0.01
2022-12-03T11:13:44.665Z,-0.06
2022-12-03T11:14:59.815Z,-0.15
2022-12-03T11:16:03.291Z,-0.26
2022-12-03T11:17:06.993Z,-0.26
2022-12-03T11:18:08.596Z,-0.06
2022-12-03T11:19:15.107Z,-0.44
2022-12-03T11:21:05.437Z,-0.46
2022-12-03T11:22:43.829Z,-0.52
2022-12-03T11:24:15.659Z,-0.22
2022-12-03T11:25:47.362Z,-0.15
2022-12-03T11:27:17.163Z,-0.11
2022-12-03T11:28:52.185Z,0.08
2022-12-03T11:29:57.052Z,-0.03
2022-12-03T11:31:01.031Z,-0.03
2022-12-03T11:32:11.273Z,0.10
2022-12-03T11:33:23.498Z,-0.16
2022-12-03T11:34:48.693Z,-0.21
2022-12-03T11:36:14.667Z,-0.31
2022-12-03T11:37:26.885Z,-0.33
2022-12-03T11:38:55.920Z,-0.21
2022-12-03T11:40:26.968Z,-0.23
2022-12-03T11:41:31.424Z,-0.28
2022-12-03T11:42:43.401Z,-0.34
2022-12-03T11:44:18.742Z,0.00
2022-12-03T11:45:30.867Z,-0.20
2022-12-03T11:46:42.119Z,0.11
2022-12-03T11:47:47.432Z,-0.10
2022-12-03T11:48:51.626Z,0.02
2022-12-03T11:49:53.488Z,-0.25
2022-12-03T11:50:55.602Z,-0.70
2022-12-03T11:51:59.911Z,-0.67
2022-12-03T11:53:08.184Z,-0.41
2022-12-03T11:54:15.785Z,-0.55
2022-12-03T11:55:24.683Z,-0.58
2022-12-03T11:56:29.963Z,-0.57
2022-12-03T11:57:37.106Z,-0.60
2022-12-03T11:58:42.229Z,-0.86
2022-12-03T11:59:57.419Z,-0.62
2022-12-03T12:01:02.534Z,-0.46
2022-12-03T12:02:19.729Z,-0.47
2022-12-03T12:03:23.969Z,-0.42
2022-12-03T12:04:33.964Z,-0.34
2022-12-03T12:05:35.720Z,-0.15
2022-12-03T12:06:42.423Z,-0.28
2022-12-03T12:07:44.324Z,-0.34
2022-12-03T12:08:56.165Z,-0.48
2022-12-03T12:09:58.029Z,-0.17
2022-12-03T12:11:00.251Z,-0.41
2022-12-03T12:12:21.250Z,-0.44
2022-12-03T12:13:51.247Z,-0.37
2022-12-03T12:14:52.791Z,-0.57
2022-12-03T12:15:54.571Z,-0.94
2022-12-03T12:16:57.453Z,-1.02
2022-12-03T12:18:38.907Z,-0.50
2022-12-03T12:19:41.758Z,-0.61
2022-12-03T12:20:43.360Z,-0.91
2022-12-03T12:21:47.191Z,-0.70
2022-12-03T12:22:48.757Z,-0.88
2022-12-03T12:23:50.268Z,-0.65
2022-12-03T12:24:53.477Z,-0.49
2022-12-03T12:26:06.060Z,-0.49
2022-12-03T12:27:09.558Z,-0.37
2022-12-03T12:28:11.072Z,-0.50
2022-12-03T12:29:12.590Z,-0.52
2022-12-03T12:30:15.914Z,-0.82
2022-12-03T12:31:17.511Z,-1.34
2022-12-03T12:32:27.067Z,-1.20
2022-12-03T12:33:28.602Z,-1.34
2022-12-03T12:34:31.474Z,-1.02
2022-12-03T12:35:33.135Z,-0.88
2022-12-03T12:36:34.794Z,-0.87
2022-12-03T12:37:47.349Z,-0.62
2022-12-03T12:38:50.171Z,-0.71
2022-12-03T12:39:56.235Z,-0.68
2022-12-03T12:41:22.689Z,-0.76
2022-12-03T12:44:57.893Z,-1.31
2022-12-03T12:46:13.592Z,-1.48
2022-12-03T12:47:24.966Z,-1.21
2022-12-03T12:48:28.319Z,-1.23
2022-12-03T12:49:29.842Z,-1.29
2022-12-03T12:50:51.311Z,-1.11
2022-12-03T12:51:55.398Z,-1.12
2022-12-03T12:53:01.251Z,-1.04
2022-12-03T12:54:03.249Z,-1.08
2022-12-03T12:55:09.560Z,-1.15
2022-12-03T12:56:20.235Z,-1.38
2022-12-03T12:57:23.661Z,-1.25
2022-12-03T12:58:33.088Z,-1.23
2022-12-03T12:59:34.635Z,-1.21
2022-12-03T13:00:36.211Z,-1.15
2022-12-03T13:01:38.753Z,-1.06
2022-12-03T13:02:45.067Z,-1.01
2022-12-03T13:03:50.638Z,-0.92
2022-12-03T13:04:52.579Z,-0.65
2022-12-03T13:06:15.925Z,-0.74
2022-12-03T13:07:17.610Z,-0.86
2022-12-03T13:08:25.152Z,-0.83
2022-12-03T13:09:27.128Z,-0.83
2022-12-03T13:10:38.682Z,-0.82
2022-12-03T13:11:41.951Z,-0.86
2022-12-03T13:12:44.473Z,-0.76
2022-12-03T13:13:46.030Z,-1.20
2022-12-03T13:14:47.899Z,-1.26
2022-12-03T13:15:53.324Z,-0.93
2022-12-03T13:16:58.860Z,-0.75
2022-12-03T13:18:10.532Z,-0.71
2022-12-03T13:19:22.938Z,-0.83
2022-12-03T13:20:24.765Z,-0.70
2022-12-03T13:21:36.462Z,-0.63
2022-12-03T13:22:37.982Z,-0.77
2022-12-03T13:23:40.217Z,-0.73
2022-12-03T13:24:45.229Z,-0.90
2022-12-03T13:26:13.165Z,-1.03
2022-12-03T13:27:22.489Z,-1.06
2022-12-03T13:28:24.214Z,-0.82
2022-12-03T13:29:27.293Z,-0.84
2022-12-03T13:30:28.768Z,-0.76
2022-12-03T13:31:34.601Z,-0.97
2022-12-03T13:32:38.303Z,-1.14
2022-12-03T13:33:42.404Z,-0.96
2022-12-03T13:34:44.187Z,-1.06
2022-12-03T13:35:45.702Z,-0.83
2022-12-03T13:36:53.535Z,-0.77
2022-12-03T13:37:59.074Z,-0.89
2022-12-03T13:39:01.034Z,-1.00
2022-12-03T13:40:12.974Z,-0.95
2022-12-03T13:41:18.594Z,-1.12
2022-12-03T13:42:22.093Z,-1.00
2022-12-03T13:43:23.680Z,-0.67
2022-12-03T13:44:26.632Z,-0.81
2022-12-03T13:45:35.243Z,-0.85
2022-12-03T13:46:36.824Z,-0.54
2022-12-03T13:47:38.379Z,-0.62
2022-12-03T13:48:41.224Z,-0.86
2022-12-03T13:49:47.775Z,-0.88
2022-12-03T13:50:50.002Z,-0.96
2022-12-03T13:51:51.719Z,-0.69
2022-12-03T13:52:53.450Z,-0.73
2022-12-03T13:53:55.307Z,-0.84
2022-12-03T13:54:57.101Z,-0.81
2022-12-03T13:56:15.474Z,-0.90
2022-12-03T13:57:17.103Z,-0.91
2022-12-03T13:58:18.701Z,-0.94
2022-12-03T13:59:25.807Z,-1.10
2022-12-03T14:00:27.750Z,-0.87
2022-12-03T14:01:30.178Z,-0.88
2022-12-03T14:02:31.828Z,-1.19
2022-12-03T14:03:33.361Z,-1.07
2022-12-03T14:04:36.219Z,-0.86
2022-12-03T14:05:37.784Z,-0.77
2022-12-03T14:06:39.329Z,-0.99
2022-12-03T14:07:41.097Z,-1.15
2022-12-03T14:08:42.728Z,-1.06
2022-12-03T14:09:44.227Z,-1.12
2022-12-03T14:10:45.751Z,-0.91
2022-12-03T14:11:47.265Z,-0.93
2022-12-03T14:12:48.795Z,-0.72
2022-12-03T14:13:50.279Z,-0.91